Hampton, Florida
Current Conditions -  °F | °C
As of 5:55 PM on Saturday 20 Dec 2014 (Local Time) from K42J Reporting Station
Clear Clear  
Wind Chill: 64°   Ceiling: Unl
Heat Index: 64°   Visibility: 9mi
Dew Point: 52°   Wind: 5mph
Humidity: 64%   Direction: 70°ENE
Pressure: 30.09"   Gusts: NA
Location:  29.86°N, 82.13°W
Report Text: K42J 202255Z AUTO 07004KT 9SM CLR 18/11 A3009 RMK AO1 TSNO
Loading
Personal Weather Stations






























Interactive Weather Map New forecast layout! Learn more

10-Day Weather Forecast

Advertisements
Track Severe Weather on mobile